Time;durP1;ratioP1;P1;durP2;ratioP2;P2;SDS_P1;SDS_P2;PMS_P1;PMS_P2;Temp;Humidity;BMP_temperature;BMP_pressure;BME280_temperature;BME280_humidity;BME280_pressure;Samples;Min_cycle;Max_cycle;Signal;HPM_P1;HPM_P2
2021/08/06 00:00:30;;;;;;;2.25;2.05;;;15.50;99.90;;;;;;6268302;23;19988;-95
2021/08/06 00:03:01;;;;;;;4.22;2.25;;;15.50;99.90;;;;;;6242792;23;19994;-96
2021/08/06 00:05:28;;;;;;;2.30;2.10;;;15.50;99.90;;;;;;6272046;23;20023;-96
2021/08/06 00:07:54;;;;;;;1.90;1.70;;;15.60;99.90;;;;;;6245098;22;20011;-96
2021/08/06 00:10:22;;;;;;;2.00;1.88;;;15.60;99.90;;;;;;6245234;23;20060;-95
2021/08/06 00:12:53;;;;;;;3.92;2.33;;;15.60;99.90;;;;;;6246801;23;20065;-96
2021/08/06 00:15:28;;;;;;;3.65;2.30;;;15.60;99.90;;;;;;6220971;23;20004;-96
2021/08/06 00:24:43;;;;;;;3.45;2.00;;;15.60;99.90;;;;;;6273084;23;20004;-96
2021/08/06 00:27:45;;;;;;;2.20;1.73;;;15.60;99.90;;;;;;6274437;22;20024;-96
2021/08/06 00:30:44;;;;;;;3.55;2.05;;;15.60;99.90;;;;;;6267130;22;20015;-96
2021/08/06 00:34:22;;;;;;;4.78;3.25;;;15.60;99.90;;;;;;6251761;22;20019;-96
2021/08/06 00:37:03;;;;;;;3.15;2.00;;;15.60;99.90;;;;;;6229830;22;20024;-96
2021/08/06 00:39:28;;;;;;;2.70;2.40;;;15.50;99.90;;;;;;6245896;22;20024;-96
2021/08/06 00:41:55;;;;;;;3.70;2.65;;;15.50;99.90;;;;;;6239391;23;20004;-95
2021/08/06 00:44:20;;;;;;;3.33;2.45;;;15.50;99.90;;;;;;6263092;23;20043;-95
2021/08/06 00:46:47;;;;;;;5.32;2.60;;;15.50;99.90;;;;;;6258956;23;20054;-96
2021/08/06 00:49:13;;;;;;;4.70;3.22;;;15.50;99.90;;;;;;6230344;23;20019;-96
2021/08/06 00:51:39;;;;;;;3.55;2.95;;;15.50;99.90;;;;;;6257730;23;19996;-96
2021/08/06 00:54:05;;;;;;;2.67;2.35;;;15.50;99.90;;;;;;6260323;23;20459;-96
2021/08/06 00:56:31;;;;;;;3.60;2.42;;;15.50;99.90;;;;;;6231813;23;20083;-95
2021/08/06 00:58:57;;;;;;;6.57;3.60;;;15.50;99.90;;;;;;6225519;23;20046;-95
2021/08/06 01:01:25;;;;;;;12.13;4.15;;;15.50;99.90;;;;;;6224126;23;20062;-96
2021/08/06 01:04:05;;;;;;;4.40;3.00;;;15.50;99.90;;;;;;6252029;23;20000;-96
2021/08/06 01:06:52;;;;;;;5.78;4.07;;;15.50;99.90;;;;;;6251516;23;20004;-96
2021/08/06 01:09:44;;;;;;;9.30;3.85;;;15.50;99.90;;;;;;6231061;23;20083;-96
2021/08/06 01:12:15;;;;;;;5.97;3.20;;;15.50;99.90;;;;;;6260024;23;20024;-94
2021/08/06 01:14:49;;;;;;;8.70;4.65;;;15.50;99.90;;;;;;6231242;23;20055;-96
2021/08/06 01:17:16;;;;;;;8.82;4.78;;;15.60;99.90;;;;;;6256920;23;20027;-95
2021/08/06 01:20:21;;;;;;;4.93;3.80;;;15.50;99.90;;;;;;6229913;23;20027;-96
2021/08/06 01:23:17;;;;;;;6.15;4.55;;;15.50;99.90;;;;;;6289356;22;20055;-96
2021/08/06 01:26:27;;;;;;;7.43;4.47;;;15.50;99.90;;;;;;6267725;22;20004;-96
2021/08/06 01:28:54;;;;;;;;;;;15.40;99.90;;;;;;6266845;22;20018;-96
2021/08/06 01:31:27;;;;;;;12.13;4.95;;;15.40;99.90;;;;;;6265363;22;19899;-96
2021/08/06 01:33:53;;;;;;;9.40;4.80;;;15.40;99.90;;;;;;6269875;22;20000;-95
2021/08/06 01:36:20;;;;;;;6.70;5.38;;;15.40;99.90;;;;;;6296308;22;20012;-96
2021/08/06 01:38:46;;;;;;;4.72;3.53;;;15.40;99.90;;;;;;6265475;22;20050;-95
2021/08/06 01:41:21;;;;;;;8.73;5.07;;;15.40;99.90;;;;;;6269604;22;20008;-95
2021/08/06 01:43:56;;;;;;;11.05;5.38;;;15.40;99.90;;;;;;6268184;22;20007;-95
2021/08/06 01:46:25;;;;;;;5.53;3.92;;;15.30;99.90;;;;;;6261052;22;20007;-95
2021/08/06 01:48:57;;;;;;;7.10;5.10;;;15.30;99.90;;;;;;6259681;22;20053;-95
2021/08/06 01:51:23;;;;;;;7.90;5.40;;;15.30;99.90;;;;;;6264607;22;20039;-96
2021/08/06 01:53:54;;;;;;;8.95;5.70;;;15.30;99.90;;;;;;6296267;22;20012;-96
2021/08/06 01:56:22;;;;;;;19.35;6.22;;;15.20;99.90;;;;;;6260300;22;20010;-96
2021/08/06 01:58:53;;;;;;;8.80;5.88;;;15.20;99.90;;;;;;6266204;22;20011;-96
2021/08/06 02:01:23;;;;;;;9.48;6.50;;;15.20;99.90;;;;;;6271356;22;20003;-96
2021/08/06 02:03:57;;;;;;;7.32;4.68;;;15.20;99.90;;;;;;6225968;22;20015;-96
2021/08/06 02:06:42;;;;;;;13.80;6.55;;;15.20;99.90;;;;;;6276602;22;20008;-96
2021/08/06 02:23:11;;;;;;;7.43;4.45;;;15.10;99.90;;;;;;6262470;22;20031;-95
2021/08/06 03:03:07;;;;;;;;;;;;;;;;;;;;;
2021/08/06 03:10:52;;;;;;;14.57;5.85;;;15.00;99.90;;;;;;6227445;22;20028;-95
2021/08/06 05:09:45;;;;;;;15.40;6.20;;;14.80;99.90;;;;;;6207843;22;20151;-96
2021/08/06 05:12:19;;;;;;;14.95;6.82;;;14.80;99.90;;;;;;6258501;23;20091;-96
2021/08/06 05:14:55;;;;;;;15.30;6.85;;;14.80;99.90;;;;;;6227802;23;20381;-96
2021/08/06 05:17:21;;;;;;;10.70;5.85;;;14.80;99.90;;;;;;6202223;23;20015;-96
2021/08/06 05:19:49;;;;;;;15.00;6.40;;;14.80;99.90;;;;;;6225650;23;20016;-96
2021/08/06 05:22:15;;;;;;;12.15;6.38;;;14.80;99.90;;;;;;6242976;23;20043;-95
2021/08/06 05:24:41;;;;;;;12.98;6.18;;;14.80;99.90;;;;;;6222305;23;20473;-96
2021/08/06 05:27:07;;;;;;;11.35;6.30;;;14.80;99.90;;;;;;6226152;23;20004;-96
2021/08/06 05:29:33;;;;;;;10.45;6.57;;;14.80;99.90;;;;;;6226413;23;19996;-96
2021/08/06 05:32:08;;;;;;;14.40;7.32;;;14.70;99.90;;;;;;6227298;23;20008;-96
2021/08/06 05:34:34;;;;;;;15.85;6.68;;;14.70;99.90;;;;;;6256247;22;20012;-96
2021/08/06 05:37:00;;;;;;;17.55;6.72;;;14.80;99.90;;;;;;6228493;23;20012;-96
2021/08/06 05:39:25;;;;;;;15.75;6.82;;;14.80;99.90;;;;;;6234001;23;20019;-96
2021/08/06 05:41:53;;;;;;;11.43;7.05;;;14.80;99.90;;;;;;6236238;23;20004;-96
2021/08/06 05:44:19;;;;;;;16.50;7.38;;;14.80;99.90;;;;;;6237580;23;19992;-96
2021/08/06 05:46:47;;;;;;;10.40;6.75;;;14.80;99.90;;;;;;6239472;23;20052;-96
2021/08/06 05:49:13;;;;;;;16.65;6.32;;;14.80;99.90;;;;;;6240985;23;20011;-96
2021/08/06 05:51:39;;;;;;;18.20;6.65;;;14.90;99.90;;;;;;6161086;22;20647;-96
2021/08/06 05:54:05;;;;;;;16.80;7.32;;;14.90;99.90;;;;;;6246499;22;20072;-95
2021/08/06 05:56:31;;;;;;;18.60;6.47;;;14.90;99.90;;;;;;6226101;23;20004;-95
2021/08/06 05:58:57;;;;;;;10.40;6.05;;;14.90;99.90;;;;;;6220429;23;20526;-95
2021/08/06 06:01:23;;;;;;;14.27;5.40;;;14.90;99.90;;;;;;6222882;23;20000;-95
2021/08/06 06:03:49;;;;;;;8.93;5.20;;;14.90;99.90;;;;;;6247770;23;20000;-95
2021/08/06 06:06:15;;;;;;;10.80;5.80;;;14.90;99.90;;;;;;6219895;23;20000;-95
2021/08/06 06:08:40;;;;;;;8.05;5.10;;;14.90;99.90;;;;;;6220167;23;20004;-94
2021/08/06 06:11:06;;;;;;;9.40;5.43;;;14.90;99.90;;;;;;6221438;23;20050;-94
2021/08/06 06:13:32;;;;;;;9.88;3.80;;;15.00;99.90;;;;;;6247306;23;20062;-94
2021/08/06 06:15:58;;;;;;;7.82;4.30;;;15.00;99.90;;;;;;6220508;23;20501;-94
2021/08/06 06:18:24;;;;;;;9.45;4.32;;;15.00;99.90;;;;;;6221893;23;20015;-95
2021/08/06 06:20:51;;;;;;;6.78;3.80;;;15.00;99.90;;;;;;6222325;23;20455;-95
2021/08/06 06:23:17;;;;;;;7.95;3.90;;;15.00;99.90;;;;;;6249570;23;20083;-94
2021/08/06 06:25:43;;;;;;;8.65;3.92;;;15.00;99.90;;;;;;6240958;23;20004;-96
2021/08/06 06:28:09;;;;;;;5.00;3.30;;;15.00;99.90;;;;;;6204511;23;20007;-96
2021/08/06 06:30:41;;;;;;;8.57;3.40;;;15.10;99.90;;;;;;6200558;23;20020;-96
2021/08/06 06:33:12;;;;;;;5.55;2.75;;;15.10;99.90;;;;;;6206847;23;20005;-96
2021/08/06 06:35:38;;;;;;;5.18;2.85;;;15.10;99.90;;;;;;6202974;23;19981;-96
2021/08/06 06:38:04;;;;;;;5.25;2.88;;;15.10;99.90;;;;;;6206291;23;20013;-96
2021/08/06 06:40:30;;;;;;;3.25;2.60;;;15.10;99.90;;;;;;6205367;23;20013;-96
2021/08/06 06:42:57;;;;;;;2.63;2.17;;;15.10;99.90;;;;;;6189757;23;20005;-96
2021/08/06 06:45:23;;;;;;;3.38;2.40;;;15.10;99.90;;;;;;6189596;23;20020;-95
2021/08/06 06:47:51;;;;;;;3.78;2.17;;;15.10;99.90;;;;;;6191019;23;20029;-95
2021/08/06 06:50:20;;;;;;;6.88;2.30;;;15.10;99.90;;;;;;6189621;23;20058;-95
2021/08/06 07:06:49;;;;;;;5.55;2.05;;;15.20;99.90;;;;;;6205059;22;21322;-92
2021/08/06 07:09:14;;;;;;;4.20;2.15;;;15.20;99.90;;;;;;6217633;23;20317;-96
2021/08/06 07:11:42;;;;;;;4.78;2.20;;;15.20;99.90;;;;;;6221580;23;20035;-96
2021/08/06 07:14:08;;;;;;;6.15;2.70;;;15.30;99.90;;;;;;6221286;23;20418;-96
2021/08/06 07:16:34;;;;;;;4.78;3.30;;;15.30;99.90;;;;;;6223769;23;20011;-96
2021/08/06 07:18:59;;;;;;;6.05;2.75;;;15.40;99.90;;;;;;6220340;23;20502;-96
2021/08/06 07:21:25;;;;;;;5.60;2.80;;;15.50;99.90;;;;;;6228858;22;20024;-95
2021/08/06 07:41:10;;;;;;;8.90;3.40;;;15.70;99.90;;;;;;6195058;22;20076;-93
2021/08/06 07:43:38;;;;;;;7.35;3.95;;;15.80;99.90;;;;;;6247937;22;20024;-95
2021/08/06 07:46:07;;;;;;;4.05;2.75;;;15.90;99.90;;;;;;6270674;22;20001;-95
2021/08/06 07:48:33;;;;;;;2.55;1.90;;;15.90;99.90;;;;;;6250585;22;20023;-95
2021/08/06 08:16:43;;;;;;;3.90;1.00;;;16.20;99.90;;;;;;6256818;22;20393;-96
2021/08/06 08:40:47;;;;;;;1.00;0.73;;;17.00;99.90;;;;;;6229390;22;20103;-95
2021/08/06 08:43:13;;;;;;;1.38;0.60;;;17.10;99.90;;;;;;6235323;23;20008;-94
2021/08/06 08:45:42;;;;;;;2.22;0.82;;;17.00;99.90;;;;;;6236797;22;20004;-96
2021/08/06 09:10:30;;;;;;;1.20;1.08;;;16.90;99.90;;;;;;6234136;22;20024;-96
2021/08/06 09:13:05;;;;;;;1.08;0.60;;;17.00;99.90;;;;;;6243696;22;20039;-96
2021/08/06 09:18:27;;;;;;;1.30;0.60;;;17.10;99.90;;;;;;6242621;22;20016;-96
2021/08/06 09:21:13;;;;;;;0.52;0.52;;;17.10;99.90;;;;;;6266601;22;20000;-95
2021/08/06 09:29:28;;;;;;;;;;;;;;;;;;;;;
2021/08/06 09:32:02;;;;;;;;;;;17.30;99.90;;;;;;6231851;22;20023;-95
2021/08/06 09:39:49;;;;;;;3.78;1.10;;;17.40;99.90;;;;;;6252377;22;20020;-96
2021/08/06 09:47:54;;;;;;;1.08;0.85;;;17.30;99.90;;;;;;6235171;22;20020;-95
2021/08/06 09:50:24;;;;;;;4.28;1.15;;;17.30;99.90;;;;;;6212489;23;20043;-95
2021/08/06 09:52:52;;;;;;;6.17;1.33;;;17.30;99.90;;;;;;6247426;22;20038;-95
2021/08/06 09:55:31;;;;;;;5.55;1.40;;;17.20;99.90;;;;;;6246449;22;20035;-96
2021/08/06 09:58:01;;;;;;;3.13;1.58;;;17.20;99.90;;;;;;6272488;22;20011;-96
2021/08/06 10:06:28;;;;;;;4.10;1.60;;;17.20;99.90;;;;;;6264674;22;20040;-96
2021/08/06 10:14:09;;;;;;;6.38;1.55;;;17.40;99.90;;;;;;6272210;22;20076;-96
2021/08/06 10:16:44;;;;;;;3.37;1.63;;;17.50;99.90;;;;;;6272162;22;20022;-95
2021/08/06 10:24:48;;;;;;;4.57;1.30;;;17.90;99.90;;;;;;6260282;22;20240;-96
2021/08/06 10:27:27;;;;;;;3.80;1.35;;;18.10;99.90;;;;;;6209324;22;20007;-95
2021/08/06 11:34:14;;;;;;;1.02;0.32;;;19.30;99.90;;;;;;6252041;22;20062;-96
2021/08/06 11:39:19;;;;;;;1.30;0.30;;;18.90;99.90;;;;;;6237915;22;20024;-95
2021/08/06 11:41:47;;;;;;;1.45;0.50;;;18.80;99.90;;;;;;6246342;23;20012;-96
2021/08/06 11:44:13;;;;;;;0.40;0.40;;;18.70;99.90;;;;;;6265693;22;19993;-96
2021/08/06 11:46:52;;;;;;;2.08;0.55;;;18.60;99.90;;;;;;6238532;22;20008;-96
2021/08/06 11:51:58;;;;;;;0.95;0.60;;;18.60;99.90;;;;;;6300685;22;20019;-96
2021/08/06 11:54:25;;;;;;;2.53;0.70;;;18.70;99.90;;;;;;6240836;22;20525;-96
2021/08/06 12:04:46;;;;;;;1.20;0.60;;;19.70;99.90;;;;;;6291420;22;20412;-94
2021/08/06 12:07:12;;;;;;;0.38;0.38;;;19.70;99.90;;;;;;6262866;22;20012;-95
2021/08/06 12:09:44;;;;;;;1.60;0.85;;;19.60;99.90;;;;;;6266257;22;19992;-93
2021/08/06 12:12:09;;;;;;;1.05;0.40;;;19.30;99.90;;;;;;6222605;22;20008;-95
2021/08/06 12:17:20;;;;;;;0.82;0.55;;;18.90;99.90;;;;;;6255401;22;20016;-96
2021/08/06 12:22:22;;;;;;;1.13;0.40;;;18.70;99.90;;;;;;6262256;22;20028;-96
2021/08/06 12:24:48;;;;;;;1.58;0.82;;;18.70;99.90;;;;;;6237478;22;20059;-95
2021/08/06 12:27:26;;;;;;;0.32;0.32;;;18.70;99.90;;;;;;6241126;22;19988;-96
2021/08/06 12:50:21;;;;;;;0.68;0.68;;;18.60;99.90;;;;;;6254980;22;20024;-95
2021/08/06 12:55:33;;;;;;;5.72;1.48;;;18.40;99.90;;;;;;6255446;22;19900;-95
2021/08/06 13:37:47;;;;;;;6.93;1.85;;;19.10;99.90;;;;;;6265011;22;20097;-95
2021/08/06 13:42:50;;;;;;;4.43;1.65;;;19.50;99.90;;;;;;6266964;22;20081;-96
2021/08/06 13:45:24;;;;;;;3.92;1.80;;;19.50;99.90;;;;;;6266384;23;20003;-95
2021/08/06 13:48:07;;;;;;;4.18;1.65;;;19.50;99.90;;;;;;6272955;23;19992;-95
2021/08/06 13:53:15;;;;;;;4.80;2.10;;;19.30;99.90;;;;;;6274638;22;20055;-96
2021/08/06 13:55:44;;;;;;;6.15;1.35;;;19.30;99.90;;;;;;6243613;22;20020;-96
2021/08/06 14:00:57;;;;;;;6.22;1.88;;;20.00;99.90;;;;;;6250755;22;20016;-95
2021/08/06 14:08:36;;;;;;;3.95;1.50;;;20.40;98.80;;;;;;6245701;22;20024;-96
2021/08/06 14:13:43;;;;;;;7.80;1.92;;;20.30;97.50;;;;;;6268766;22;20024;-96
2021/08/06 14:16:13;;;;;;;5.15;1.10;;;20.40;97.80;;;;;;6246248;22;20004;-96
2021/08/06 14:18:39;;;;;;;7.85;1.50;;;20.30;97.90;;;;;;6299401;22;19988;-95
2021/08/06 14:21:06;;;;;;;3.92;1.42;;;20.20;97.90;;;;;;6273799;22;20039;-93
2021/08/06 14:23:33;;;;;;;5.97;1.20;;;20.00;97.80;;;;;;6272384;22;20000;-95
2021/08/06 14:26:33;;;;;;;3.50;1.33;;;19.80;98.20;;;;;;6272206;22;20014;-94
2021/08/06 14:28:58;;;;;;;5.20;1.42;;;19.50;97.20;;;;;;6298346;22;20004;-96
2021/08/06 14:31:32;;;;;;;4.97;1.10;;;19.20;97.60;;;;;;6298807;22;20008;-94
2021/08/06 14:34:05;;;;;;;3.55;1.27;;;19.10;97.90;;;;;;6278140;22;20020;-95
2021/08/06 14:42:05;;;;;;;3.15;1.02;;;20.00;97.00;;;;;;6254119;22;20063;-95
2021/08/06 14:44:51;;;;;;;4.95;1.13;;;20.30;96.20;;;;;;6238558;22;20012;-96
2021/08/06 14:47:25;;;;;;;2.25;1.20;;;20.50;95.30;;;;;;6238988;22;20023;-96
2021/08/06 14:49:54;;;;;;;4.85;1.60;;;20.60;95.10;;;;;;6239660;23;20019;-96
2021/08/06 14:52:51;;;;;;;9.40;1.30;;;20.50;94.30;;;;;;6221276;22;20023;-96
2021/08/06 14:55:20;;;;;;;7.80;1.85;;;20.40;94.70;;;;;;6249147;22;20012;-95
2021/08/06 14:57:46;;;;;;;4.47;1.35;;;20.30;95.30;;;;;;6261867;23;20004;-96
2021/08/06 15:00:20;;;;;;;4.45;1.60;;;20.20;95.10;;;;;;6261996;23;20090;-96
2021/08/06 15:02:46;;;;;;;6.25;1.52;;;20.10;95.20;;;;;;6234186;23;20011;-96
2021/08/06 15:05:14;;;;;;;4.55;1.40;;;19.90;95.40;;;;;;6238734;23;20012;-95
2021/08/06 15:07:51;;;;;;;3.75;0.95;;;19.90;96.00;;;;;;6240662;22;20035;-96
2021/08/06 15:10:18;;;;;;;5.07;1.00;;;20.10;96.10;;;;;;6233449;23;20003;-96
2021/08/06 15:12:43;;;;;;;6.63;1.42;;;20.30;95.50;;;;;;6230111;23;20004;-94
2021/08/06 15:15:10;;;;;;;3.08;1.40;;;20.50;95.00;;;;;;6222027;23;20008;-95
2021/08/06 15:17:38;;;;;;;3.67;1.17;;;20.60;94.50;;;;;;6222499;23;20312;-93
2021/08/06 15:20:06;;;;;;;4.07;1.20;;;20.60;94.10;;;;;;6221715;23;20027;-94
2021/08/06 15:22:31;;;;;;;7.35;1.40;;;20.50;94.00;;;;;;6251789;23;20051;-95
2021/08/06 15:24:57;;;;;;;5.18;1.27;;;20.40;94.10;;;;;;6250242;23;20004;-93
2021/08/06 15:27:23;;;;;;;3.53;1.30;;;20.30;93.90;;;;;;6255635;23;19996;-95
2021/08/06 15:29:51;;;;;;;1.67;0.95;;;20.10;93.90;;;;;;6255312;23;20007;-96
2021/08/06 15:32:17;;;;;;;3.20;1.08;;;20.00;93.50;;;;;;6232846;23;20068;-96
2021/08/06 15:34:43;;;;;;;3.65;1.10;;;20.10;93.50;;;;;;6231316;23;20004;-96
2021/08/06 16:03:02;;;;;;;6.22;1.10;;;21.40;85.60;;;;;;6244345;22;20083;-96
2021/08/06 16:13:40;;;;;;;4.15;1.10;;;21.70;82.00;;;;;;6240483;22;20071;-96
2021/08/06 16:16:09;;;;;;;5.72;1.30;;;21.70;82.00;;;;;;6206724;23;20026;-93
2021/08/06 16:18:38;;;;;;;2.53;1.00;;;21.80;82.30;;;;;;6221314;23;20008;-94
2021/08/06 16:21:31;;;;;;;;;;;;;;;;;;;;;
2021/08/06 16:24:11;;;;;;;10.48;1.15;;;21.90;79.90;;;;;;6249789;23;20092;-93
2021/08/06 16:26:43;;;;;;;2.85;1.30;;;22.00;79.70;;;;;;6259788;23;20010;-94
2021/08/06 16:29:19;;;;;;;2.20;1.10;;;22.10;79.50;;;;;;6242698;23;19996;-94
2021/08/06 16:32:47;;;;;;;6.70;1.15;;;22.20;79.00;;;;;;6225526;23;20187;-95
2021/08/06 16:35:15;;;;;;;1.73;0.88;;;22.40;78.70;;;;;;6046105;23;20055;-96
2021/08/06 16:37:41;;;;;;;4.40;1.67;;;22.40;77.90;;;;;;6048534;23;20086;-96
2021/08/06 16:40:07;;;;;;;8.05;1.50;;;22.40;77.90;;;;;;6044243;23;20515;-95
2021/08/06 16:42:36;;;;;;;5.15;1.48;;;22.40;77.90;;;;;;6046589;23;20089;-94
2021/08/06 16:45:03;;;;;;;4.65;1.15;;;22.40;75.70;;;;;;6047919;23;20526;-95
2021/08/06 16:47:29;;;;;;;5.03;1.25;;;22.10;75.20;;;;;;6044442;23;20041;-94
2021/08/06 16:49:58;;;;;;;5.43;1.20;;;22.00;76.20;;;;;;6043038;23;20011;-94
2021/08/06 16:52:23;;;;;;;5.07;1.20;;;21.90;76.10;;;;;;6043622;23;20010;-94
2021/08/06 16:54:49;;;;;;;2.97;1.02;;;21.80;76.80;;;;;;6043133;23;20042;-94
2021/08/06 16:57:15;;;;;;;2.75;1.02;;;21.80;76.80;;;;;;6044294;23;20038;-93
2021/08/06 16:59:44;;;;;;;3.53;1.27;;;21.60;75.60;;;;;;6044269;23;20014;-94
2021/08/06 17:02:19;;;;;;;3.83;1.40;;;21.50;75.40;;;;;;6045750;23;20011;-95
2021/08/06 17:04:44;;;;;;;4.13;1.33;;;21.40;76.60;;;;;;6044509;23;20007;-95
2021/08/06 17:07:10;;;;;;;3.05;1.17;;;21.30;75.80;;;;;;6098227;23;20105;-95
2021/08/06 17:09:36;;;;;;;6.45;1.30;;;21.20;76.10;;;;;;6126433;23;20143;-94
2021/08/06 17:12:02;;;;;;;4.03;1.00;;;21.10;76.60;;;;;;6201267;22;20089;-94
2021/08/06 17:14:27;;;;;;;5.15;1.30;;;21.00;77.10;;;;;;6190314;23;20016;-94
2021/08/06 17:16:53;;;;;;;4.65;1.27;;;21.10;77.80;;;;;;6196119;23;20429;-92
2021/08/06 17:19:19;;;;;;;4.55;1.27;;;21.10;77.90;;;;;;6191448;23;20017;-94
2021/08/06 17:21:45;;;;;;;4.40;1.27;;;21.00;77.70;;;;;;6191292;23;20047;-93
2021/08/06 17:24:13;;;;;;;2.97;0.90;;;20.90;78.10;;;;;;6190821;23;20008;-93
2021/08/06 17:26:39;;;;;;;2.90;0.90;;;20.80;78.40;;;;;;6191540;23;20000;-93
2021/08/06 17:29:05;;;;;;;7.93;1.17;;;20.80;78.70;;;;;;6191652;23;20058;-93
2021/08/06 17:31:33;;;;;;;2.30;1.10;;;20.70;79.00;;;;;;6191441;23;20374;-92
2021/08/06 17:33:59;;;;;;;2.95;1.15;;;20.70;79.30;;;;;;6191020;23;20012;-94
2021/08/06 17:36:28;;;;;;;4.47;1.80;;;20.50;78.90;;;;;;6191121;23;20009;-92
2021/08/06 17:38:54;;;;;;;4.05;0.95;;;20.40;79.30;;;;;;6191783;23;20013;-94
2021/08/06 17:41:23;;;;;;;2.75;1.00;;;20.30;79.40;;;;;;6192104;23;20035;-92
2021/08/06 17:43:48;;;;;;;5.13;1.45;;;20.20;79.50;;;;;;6191521;23;20004;-93
2021/08/06 17:46:14;;;;;;;6.50;1.40;;;20.10;79.70;;;;;;6191143;23;20091;-93
2021/08/06 17:48:40;;;;;;;2.35;1.10;;;20.00;80.20;;;;;;6190979;23;20008;-93
2021/08/06 17:51:09;;;;;;;4.10;1.10;;;19.90;80.90;;;;;;6190292;23;20000;-95
2021/08/06 17:53:40;;;;;;;4.57;1.15;;;19.90;81.30;;;;;;6191308;23;20008;-93
2021/08/06 17:56:06;;;;;;;8.05;1.38;;;19.80;81.60;;;;;;6191370;23;20009;-91
2021/08/06 17:58:32;;;;;;;4.38;1.30;;;19.80;81.90;;;;;;6190405;23;20096;-92
2021/08/06 18:01:02;;;;;;;3.15;1.38;;;19.70;82.40;;;;;;6191535;23;20012;-91
2021/08/06 18:03:28;;;;;;;7.40;1.40;;;19.70;82.80;;;;;;6187417;23;20012;-93
2021/08/06 18:05:54;;;;;;;4.38;1.13;;;19.50;82.90;;;;;;6190112;23;20005;-93
2021/08/06 18:08:20;;;;;;;6.00;1.30;;;19.50;83.30;;;;;;6191094;23;20005;-93
2021/08/06 18:10:58;;;;;;;;;;;;;;;;;;;;;
2021/08/06 18:13:27;;;;;;;5.47;1.30;;;19.40;84.20;;;;;;6209100;23;20044;-93
2021/08/06 18:15:53;;;;;;;2.78;1.33;;;19.30;84.50;;;;;;6180803;23;20005;-93
2021/08/06 18:18:18;;;;;;;3.67;1.02;;;19.30;85.10;;;;;;6160899;23;20455;-94
2021/08/06 18:20:44;;;;;;;7.93;2.03;;;19.20;84.90;;;;;;6160313;23;20468;-92
2021/08/06 18:23:10;;;;;;;3.70;1.15;;;19.20;85.40;;;;;;6161538;23;20060;-91
2021/08/06 18:25:35;;;;;;;3.33;1.40;;;19.10;85.90;;;;;;6161427;23;20005;-92
2021/08/06 18:28:09;;;;;;;2.45;1.13;;;19.10;85.90;;;;;;6160534;23;20056;-93
2021/08/06 18:30:37;;;;;;;3.47;1.20;;;19.00;86.00;;;;;;6160272;23;20012;-94
2021/08/06 18:33:04;;;;;;;4.45;1.30;;;19.00;86.10;;;;;;6158369;23;20008;-94
2021/08/06 18:35:32;;;;;;;3.50;1.23;;;19.00;86.20;;;;;;6159750;23;20009;-95
2021/08/06 18:38:01;;;;;;;5.68;1.42;;;19.00;86.20;;;;;;6161193;23;20029;-94
2021/08/06 18:40:28;;;;;;;8.55;1.45;;;18.80;85.40;;;;;;6162471;23;20012;-96
2021/08/06 18:42:55;;;;;;;3.75;1.23;;;18.80;85.60;;;;;;6160763;23;20059;-94
2021/08/06 18:45:21;;;;;;;5.60;1.40;;;18.70;85.60;;;;;;6160618;23;20009;-94
2021/08/06 18:47:53;;;;;;;5.93;1.55;;;18.70;85.60;;;;;;6160739;23;20001;-95
2021/08/06 18:50:21;;;;;;;5.80;1.23;;;18.60;85.40;;;;;;6160289;23;20042;-95
2021/08/06 18:52:48;;;;;;;2.53;0.95;;;18.60;85.80;;;;;;6158731;23;20032;-94
2021/08/06 18:55:13;;;;;;;3.97;1.25;;;18.50;86.10;;;;;;6158625;23;20059;-95
2021/08/06 18:57:39;;;;;;;8.43;1.63;;;18.50;86.30;;;;;;6158429;23;20009;-94
2021/08/06 19:00:07;;;;;;;3.33;0.98;;;18.50;86.40;;;;;;6159345;23;20048;-92
2021/08/06 19:02:36;;;;;;;3.75;1.10;;;18.40;86.20;;;;;;6163169;23;20001;-93
2021/08/06 19:05:06;;;;;;;4.15;1.08;;;18.40;86.80;;;;;;6164115;23;20005;-93
2021/08/06 19:07:32;;;;;;;6.05;1.10;;;18.30;86.90;;;;;;6162585;23;20005;-92
2021/08/06 19:09:58;;;;;;;3.63;1.20;;;18.20;86.90;;;;;;6164801;23;20040;-95
2021/08/06 19:12:24;;;;;;;2.90;0.90;;;18.20;87.40;;;;;;6162591;23;20009;-94
2021/08/06 19:14:49;;;;;;;4.47;1.30;;;18.20;87.90;;;;;;6161339;23;20109;-94
2021/08/06 19:17:15;;;;;;;4.57;1.85;;;18.20;88.20;;;;;;6159447;23;20451;-93
2021/08/06 19:19:42;;;;;;;2.80;1.20;;;18.10;88.70;;;;;;6159211;23;20013;-93
2021/08/06 19:22:34;;;;;;;4.85;1.05;;;18.00;89.90;;;;;;6158514;23;20005;-96
2021/08/06 19:25:59;;;;;;;3.22;0.98;;;17.90;90.40;;;;;;6158274;23;20316;-95
2021/08/06 19:29:02;;;;;;;5.57;1.50;;;17.80;90.80;;;;;;6069241;23;19999;-93
2021/08/06 19:31:28;;;;;;;4.68;1.33;;;17.70;91.40;;;;;;6039613;23;20058;-95
2021/08/06 19:33:54;;;;;;;4.50;0.90;;;17.50;91.70;;;;;;6090433;23;20011;-95
2021/08/06 19:36:56;;;;;;;4.35;1.52;;;17.40;92.10;;;;;;6042834;23;20449;-95
2021/08/06 19:39:23;;;;;;;5.03;1.23;;;17.30;92.50;;;;;;6042580;23;20505;-94
2021/08/06 19:41:56;;;;;;;5.28;1.17;;;17.30;92.90;;;;;;6043427;23;20026;-95
2021/08/06 19:44:26;;;;;;;5.55;1.48;;;17.20;93.10;;;;;;6067960;23;20042;-95
2021/08/06 19:46:58;;;;;;;6.28;1.75;;;17.10;93.30;;;;;;6068707;23;20094;-94
2021/08/06 19:49:23;;;;;;;5.38;1.50;;;17.10;93.70;;;;;;6089596;23;20023;-94
2021/08/06 19:51:51;;;;;;;3.95;1.48;;;17.00;93.80;;;;;;6043457;23;20139;-95
2021/08/06 19:54:19;;;;;;;4.70;1.35;;;17.00;93.90;;;;;;6043797;23;20027;-95
2021/08/06 19:57:09;;;;;;;5.13;1.23;;;16.90;94.10;;;;;;6045467;23;20007;-95
2021/08/06 19:59:35;;;;;;;4.68;1.20;;;16.90;94.30;;;;;;6137810;23;20009;-95
2021/08/06 20:05:00;;;;;;;3.55;1.27;;;16.80;94.80;;;;;;6169399;23;20441;-96
2021/08/06 20:07:57;;;;;;;4.60;1.33;;;16.80;95.00;;;;;;6161832;23;20052;-96
2021/08/06 20:10:38;;;;;;;5.72;1.20;;;16.70;95.20;;;;;;6162246;23;20088;-96
2021/08/06 20:13:05;;;;;;;6.30;1.83;;;16.70;95.40;;;;;;6175647;23;20083;-95
2021/08/06 20:15:32;;;;;;;7.10;2.00;;;16.60;95.50;;;;;;6194039;23;20051;-95
2021/08/06 20:17:58;;;;;;;5.68;1.42;;;16.60;95.70;;;;;;6200973;23;20008;-96
2021/08/06 20:20:24;;;;;;;6.43;1.58;;;16.60;95.90;;;;;;6196794;23;20012;-95
2021/08/06 20:22:50;;;;;;;6.50;1.60;;;16.50;96.00;;;;;;6209171;23;20031;-93
2021/08/06 20:25:15;;;;;;;7.40;1.23;;;16.40;96.20;;;;;;6210358;23;20049;-96
2021/08/06 20:27:46;;;;;;;7.65;1.45;;;16.20;96.40;;;;;;6208477;23;20000;-95
2021/08/06 20:30:15;;;;;;;4.60;1.50;;;16.20;96.70;;;;;;6201079;23;20091;-95
2021/08/06 20:32:41;;;;;;;4.70;1.40;;;16.10;97.00;;;;;;6193492;23;20012;-95
2021/08/06 20:35:08;;;;;;;7.88;1.48;;;16.00;97.20;;;;;;6192233;23;20008;-95
2021/08/06 20:37:44;;;;;;;7.25;1.67;;;16.00;97.50;;;;;;6190466;23;20000;-95
2021/08/06 20:40:11;;;;;;;4.68;1.20;;;15.90;97.70;;;;;;6188723;23;20099;-94
2021/08/06 20:42:41;;;;;;;5.97;1.45;;;15.90;97.90;;;;;;6215453;23;20094;-93
2021/08/06 20:45:10;;;;;;;2.80;1.27;;;15.80;98.10;;;;;;6190573;23;20012;-95
2021/08/06 20:47:39;;;;;;;12.68;1.35;;;15.80;98.30;;;;;;6191051;23;20000;-95
2021/08/06 20:50:06;;;;;;;9.00;1.30;;;15.80;98.50;;;;;;6191208;23;20013;-94
2021/08/06 20:52:32;;;;;;;4.93;1.05;;;15.70;98.70;;;;;;6191719;23;20005;-93
2021/08/06 20:55:00;;;;;;;4.15;1.58;;;15.70;98.90;;;;;;6191188;23;20100;-96
2021/08/06 20:57:29;;;;;;;4.03;1.30;;;15.60;99.10;;;;;;6191669;23;20019;-94
2021/08/06 20:59:55;;;;;;;4.80;1.58;;;15.60;99.40;;;;;;6191761;23;20471;-95
2021/08/06 21:02:22;;;;;;;6.90;1.88;;;15.50;99.90;;;;;;6190493;23;20012;-94
2021/08/06 21:05:12;;;;;;;6.55;2.28;;;15.40;99.80;;;;;;6190510;23;20012;-92
2021/08/06 21:07:40;;;;;;;5.15;1.42;;;15.40;99.90;;;;;;6190428;23;20467;-95
2021/08/06 21:10:07;;;;;;;6.78;1.70;;;15.40;99.90;;;;;;6189541;23;20466;-94
2021/08/06 21:12:33;;;;;;;6.15;2.20;;;15.40;99.90;;;;;;6189700;23;20379;-93
2021/08/06 21:14:58;;;;;;;8.13;2.10;;;15.40;99.90;;;;;;6189667;23;20032;-95
2021/08/06 21:17:27;;;;;;;8.90;1.63;;;15.40;99.90;;;;;;6190193;23;20059;-94
2021/08/06 21:19:56;;;;;;;5.85;1.50;;;15.30;99.90;;;;;;6189801;23;20092;-93
2021/08/06 21:22:32;;;;;;;16.30;2.15;;;15.30;99.90;;;;;;6190306;23;20063;-95
2021/08/06 21:24:57;;;;;;;6.95;1.45;;;15.20;99.90;;;;;;6189510;23;20424;-95
2021/08/06 21:27:23;;;;;;;7.07;1.70;;;15.20;99.90;;;;;;6191003;23;20012;-95
2021/08/06 21:30:28;;;;;;;5.00;1.73;;;15.10;99.90;;;;;;6190954;23;20005;-95
2021/08/06 21:32:57;;;;;;;4.45;1.63;;;15.10;99.90;;;;;;6190572;23;20001;-94
2021/08/06 21:35:32;;;;;;;8.85;1.88;;;15.00;99.90;;;;;;6192722;23;20050;-94
2021/08/06 21:38:24;;;;;;;3.15;1.73;;;15.00;99.90;;;;;;6193111;23;20009;-95
2021/08/06 21:40:52;;;;;;;6.90;2.30;;;14.90;99.90;;;;;;6203931;23;20017;-94
2021/08/06 21:43:20;;;;;;;5.13;1.35;;;14.90;99.90;;;;;;6209262;23;20064;-93
2021/08/06 21:45:46;;;;;;;6.18;1.85;;;14.80;99.90;;;;;;6199395;23;20005;-94
2021/08/06 21:48:15;;;;;;;11.95;2.67;;;14.90;99.90;;;;;;6191909;23;20012;-94